Time;durP1;ratioP1;P1;durP2;ratioP2;P2;SDS_P1;SDS_P2;PMS_P1;PMS_P2;Temp;Humidity;BMP_temperature;BMP_pressure;BME280_temperature;BME280_humidity;BME280_pressure;Samples;Min_cycle;Max_cycle;Signal;HPM_P1;HPM_P2
2023/01/20 00:01:10;;;;;;;0.40;0.40;;;;;;;;;;5085820;28;20057;-62
2023/01/20 00:03:39;;;;;;;0.38;0.38;;;;;;;;;;5082209;28;20135;-63
2023/01/20 00:06:07;;;;;;;0.28;0.28;;;;;;;;;;5083295;28;20095;-62
2023/01/20 00:08:36;;;;;;;0.77;0.70;;;;;;;;;;5082566;28;20392;-63
2023/01/20 00:11:05;;;;;;;0.25;0.25;;;;;;;;;;5089089;28;20058;-63
2023/01/20 00:13:34;;;;;;;3.05;1.10;;;;;;;;;;5086256;28;20130;-62
2023/01/20 00:16:03;;;;;;;1.38;1.20;;;;;;;;;;5094978;28;20052;-62
2023/01/20 00:18:32;;;;;;;0.65;0.60;;;;;;;;;;5101493;28;20108;-63
2023/01/20 00:21:03;;;;;;;0.57;0.57;;;;;;;;;;5104107;28;20112;-63
2023/01/20 00:23:31;;;;;;;0.85;0.73;;;;;;;;;;5095063;28;20142;-62
2023/01/20 00:25:59;;;;;;;4.78;0.75;;;;;;;;;;5090684;28;20493;-63
2023/01/20 00:28:27;;;;;;;1.15;1.05;;;;;;;;;;5088497;28;20059;-63
2023/01/20 00:30:56;;;;;;;0.45;0.45;;;;;;;;;;5086734;28;20420;-63
2023/01/20 00:33:25;;;;;;;3.03;1.98;;;;;;;;;;5090791;28;20040;-62
2023/01/20 00:35:54;;;;;;;1.55;1.45;;;;;;;;;;5086894;28;20044;-62
2023/01/20 00:38:22;;;;;;;0.63;0.63;;;;;;;;;;5089517;28;20059;-62
2023/01/20 00:40:54;;;;;;;2.65;1.27;;;;;;;;;;5085184;28;20043;-62
2023/01/20 00:43:23;;;;;;;0.95;0.73;;;;;;;;;;5079745;28;20051;-63
2023/01/20 00:45:51;;;;;;;0.40;0.40;;;;;;;;;;5081356;28;20036;-62
2023/01/20 00:48:19;;;;;;;1.38;1.23;;;;;;;;;;5086222;28;20412;-63
2023/01/20 00:50:49;;;;;;;1.95;0.85;;;;;;;;;;5088788;28;20054;-63
2023/01/20 00:53:17;;;;;;;2.28;1.65;;;;;;;;;;5077551;28;20070;-63
2023/01/20 00:55:45;;;;;;;1.83;0.75;;;;;;;;;;5095981;28;20046;-63
2023/01/20 00:58:14;;;;;;;2.15;0.65;;;;;;;;;;5075570;28;20677;-62
2023/01/20 01:00:42;;;;;;;2.05;1.10;;;;;;;;;;5086242;28;20143;-63
2023/01/20 01:03:10;;;;;;;0.80;0.80;;;;;;;;;;5088866;28;20052;-62
2023/01/20 01:05:39;;;;;;;1.92;0.63;;;;;;;;;;5089752;28;20052;-63
2023/01/20 01:08:09;;;;;;;1.00;0.93;;;;;;;;;;5086458;28;20039;-62
2023/01/20 01:10:37;;;;;;;1.63;0.68;;;;;;;;;;5084225;28;20488;-63
2023/01/20 01:13:06;;;;;;;1.70;1.20;;;;;;;;;;5079645;28;20064;-62
2023/01/20 01:15:34;;;;;;;0.60;0.60;;;;;;;;;;5089780;28;20431;-62
2023/01/20 01:18:03;;;;;;;0.60;0.60;;;;;;;;;;5086760;28;20487;-62
2023/01/20 01:20:31;;;;;;;2.25;1.05;;;;;;;;;;5104604;28;20063;-62
2023/01/20 01:22:59;;;;;;;1.48;1.38;;;;;;;;;;5080906;28;20480;-62
2023/01/20 01:25:29;;;;;;;1.27;1.05;;;;;;;;;;5082203;28;20051;-63
2023/01/20 01:27:57;;;;;;;0.65;0.63;;;;;;;;;;5080423;28;20067;-62
2023/01/20 01:30:26;;;;;;;0.30;0.30;;;;;;;;;;5089118;28;20047;-63
2023/01/20 01:32:54;;;;;;;2.25;1.52;;;;;;;;;;5097405;28;20123;-62
2023/01/20 01:35:22;;;;;;;1.02;1.02;;;;;;;;;;5093723;28;20139;-63
2023/01/20 01:37:50;;;;;;;0.40;0.40;;;;;;;;;;5077703;28;20055;-62
2023/01/20 01:40:19;;;;;;;0.45;0.45;;;;;;;;;;5088261;28;20052;-62
2023/01/20 01:42:49;;;;;;;0.65;0.65;;;;;;;;;;5091939;28;20047;-62
2023/01/20 01:45:26;;;;;;;1.55;0.80;;;;;;;;;;5087377;28;20044;-62
2023/01/20 01:47:56;;;;;;;1.42;1.17;;;;;;;;;;5089616;28;20128;-62
2023/01/20 01:50:26;;;;;;;1.45;0.90;;;;;;;;;;5089653;28;20048;-62
2023/01/20 01:52:56;;;;;;;0.73;0.73;;;;;;;;;;5082195;28;20036;-62
2023/01/20 01:55:27;;;;;;;0.40;0.40;;;;;;;;;;5089659;28;20052;-62
2023/01/20 01:57:57;;;;;;;0.30;0.30;;;;;;;;;;5079415;28;20131;-61
2023/01/20 02:00:25;;;;;;;0.85;0.70;;;;;;;;;;5083516;28;20093;-62
2023/01/20 02:02:55;;;;;;;1.42;0.90;;;;;;;;;;5080347;28;20488;-62
2023/01/20 02:05:24;;;;;;;0.52;0.43;;;;;;;;;;5086000;28;20382;-62
2023/01/20 02:07:53;;;;;;;0.40;0.40;;;;;;;;;;5080835;28;20044;-62
2023/01/20 02:10:21;;;;;;;0.80;0.55;;;;;;;;;;5090257;28;20044;-63
2023/01/20 02:12:50;;;;;;;0.93;0.68;;;;;;;;;;5084803;28;20079;-62
2023/01/20 02:15:23;;;;;;;1.10;0.93;;;;;;;;;;5090762;28;20051;-62
2023/01/20 02:17:55;;;;;;;0.43;0.43;;;;;;;;;;5088731;28;20055;-62
2023/01/20 02:20:37;;;;;;;3.22;0.98;;;;;;;;;;5082261;28;20063;-62
2023/01/20 02:23:08;;;;;;;1.30;0.70;;;;;;;;;;5086013;28;20500;-63
2023/01/20 02:25:54;;;;;;;0.63;0.63;;;;;;;;;;5086037;28;20036;-62
2023/01/20 02:28:34;;;;;;;2.15;0.52;;;;;;;;;;5088365;28;20048;-62
2023/01/20 02:31:14;;;;;;;1.10;0.82;;;;;;;;;;5088701;28;20048;-62
2023/01/20 02:33:46;;;;;;;1.17;0.73;;;;;;;;;;5089891;28;20136;-62
2023/01/20 02:36:18;;;;;;;0.32;0.32;;;;;;;;;;5087806;28;20035;-62
2023/01/20 02:38:50;;;;;;;1.30;1.10;;;;;;;;;;5089854;28;20054;-62
2023/01/20 02:41:21;;;;;;;0.85;0.73;;;;;;;;;;5082928;28;20059;-62
2023/01/20 02:43:55;;;;;;;0.47;0.47;;;;;;;;;;5088013;28;20048;-62
2023/01/20 02:46:26;;;;;;;3.05;1.23;;;;;;;;;;5083651;28;20052;-62
2023/01/20 02:48:59;;;;;;;0.20;0.20;;;;;;;;;;5099169;28;20056;-62
2023/01/20 02:51:29;;;;;;;0.40;0.40;;;;;;;;;;5083478;28;20048;-63
2023/01/20 02:54:01;;;;;;;0.60;0.60;;;;;;;;;;5087676;28;20047;-62
2023/01/20 02:56:30;;;;;;;0.40;0.40;;;;;;;;;;5084797;28;20106;-63
2023/01/20 02:59:00;;;;;;;0.55;0.40;;;;;;;;;;5091463;28;20782;-62
2023/01/20 03:01:31;;;;;;;0.80;0.80;;;;;;;;;;5092283;28;20060;-62
2023/01/20 03:04:02;;;;;;;0.65;0.65;;;;;;;;;;5095652;28;20059;-63
2023/01/20 03:06:33;;;;;;;0.70;0.70;;;;;;;;;;5090680;28;20488;-62
2023/01/20 03:09:03;;;;;;;0.65;0.60;;;;;;;;;;5090042;28;20036;-63
2023/01/20 03:11:32;;;;;;;1.55;1.13;;;;;;;;;;5087489;28;20079;-62
2023/01/20 03:14:05;;;;;;;1.42;1.33;;;;;;;;;;5088982;28;20548;-62
2023/01/20 03:16:33;;;;;;;0.38;0.30;;;;;;;;;;5090627;28;20048;-62
2023/01/20 03:19:03;;;;;;;1.05;0.60;;;;;;;;;;5093961;28;20496;-64
2023/01/20 03:21:31;;;;;;;0.88;0.68;;;;;;;;;;5092764;28;20138;-62
2023/01/20 03:24:01;;;;;;;0.43;0.43;;;;;;;;;;5096141;28;20039;-63
2023/01/20 03:26:29;;;;;;;0.60;0.60;;;;;;;;;;5093463;28;20080;-62
2023/01/20 03:28:58;;;;;;;0.43;0.43;;;;;;;;;;5092537;28;20495;-63
2023/01/20 03:31:28;;;;;;;1.45;0.47;;;;;;;;;;5089059;28;20051;-62
2023/01/20 03:33:58;;;;;;;0.40;0.40;;;;;;;;;;5091756;28;20055;-63
2023/01/20 03:36:29;;;;;;;1.90;0.70;;;;;;;;;;5080213;28;20170;-62
2023/01/20 03:38:58;;;;;;;1.17;0.28;;;;;;;;;;5091065;28;20066;-62
2023/01/20 03:41:30;;;;;;;0.40;0.40;;;;;;;;;;5098994;28;20076;-63
2023/01/20 03:44:03;;;;;;;1.05;0.90;;;;;;;;;;5085753;28;20070;-63
2023/01/20 03:46:33;;;;;;;0.75;0.75;;;;;;;;;;5093791;28;20044;-62
2023/01/20 03:49:03;;;;;;;0.60;0.43;;;;;;;;;;5101328;28;20469;-63
2023/01/20 03:51:35;;;;;;;0.88;0.70;;;;;;;;;;5093932;28;20051;-63
2023/01/20 03:54:07;;;;;;;2.08;1.15;;;;;;;;;;5073854;28;20065;-62
2023/01/20 03:56:37;;;;;;;2.05;1.48;;;;;;;;;;5099213;28;20067;-62
2023/01/20 03:59:07;;;;;;;3.33;1.13;;;;;;;;;;5090293;28;20051;-62
2023/01/20 04:01:37;;;;;;;1.23;0.93;;;;;;;;;;5085089;28;20821;-62
2023/01/20 04:04:06;;;;;;;0.65;0.65;;;;;;;;;;5083259;28;20042;-62
2023/01/20 04:06:36;;;;;;;0.20;0.20;;;;;;;;;;5092524;28;20052;-63
2023/01/20 04:09:06;;;;;;;0.70;0.70;;;;;;;;;;5087629;28;20059;-62
2023/01/20 04:11:35;;;;;;;0.30;0.30;;;;;;;;;;5090416;28;20421;-62
2023/01/20 04:14:03;;;;;;;0.80;0.63;;;;;;;;;;5091757;28;20051;-62
2023/01/20 04:16:31;;;;;;;1.02;1.02;;;;;;;;;;5084688;28;20105;-62
2023/01/20 04:19:00;;;;;;;1.38;0.80;;;;;;;;;;5083533;28;20056;-62
2023/01/20 04:21:30;;;;;;;0.70;0.55;;;;;;;;;;5088250;28;20048;-62
2023/01/20 04:24:03;;;;;;;1.27;0.75;;;;;;;;;;5090614;28;20480;-63
2023/01/20 04:26:31;;;;;;;1.15;1.08;;;;;;;;;;5092980;28;20055;-62
2023/01/20 04:29:07;;;;;;;0.30;0.30;;;;;;;;;;5088620;28;20491;-63
2023/01/20 04:31:38;;;;;;;0.93;0.60;;;;;;;;;;5077619;28;20128;-63
2023/01/20 04:34:08;;;;;;;0.55;0.52;;;;;;;;;;5086836;28;20106;-62
2023/01/20 04:36:36;;;;;;;0.95;0.88;;;;;;;;;;5088387;28;20044;-60
2023/01/20 04:39:06;;;;;;;1.70;1.42;;;;;;;;;;5086595;28;20048;-62
2023/01/20 04:41:34;;;;;;;0.82;0.82;;;;;;;;;;5091242;28;20537;-62
2023/01/20 04:44:03;;;;;;;0.65;0.65;;;;;;;;;;5085518;28;20044;-62
2023/01/20 04:46:31;;;;;;;0.40;0.40;;;;;;;;;;5086773;28;20587;-62
2023/01/20 04:48:59;;;;;;;9.65;0.90;;;;;;;;;;5092129;28;20102;-62
2023/01/20 04:51:27;;;;;;;4.20;0.93;;;;;;;;;;5083466;28;20500;-62
2023/01/20 04:53:57;;;;;;;4.32;1.05;;;;;;;;;;5079765;28;20040;-62
2023/01/20 04:56:26;;;;;;;0.50;0.32;;;;;;;;;;5073769;28;20044;-62
2023/01/20 04:58:55;;;;;;;0.32;0.32;;;;;;;;;;5092510;28;20058;-62
2023/01/20 05:01:23;;;;;;;0.63;0.50;;;;;;;;;;5090514;28;20415;-62
2023/01/20 05:03:51;;;;;;;0.52;0.52;;;;;;;;;;5086210;28;20408;-62
2023/01/20 05:06:19;;;;;;;0.50;0.50;;;;;;;;;;5091783;28;20055;-63
2023/01/20 05:08:48;;;;;;;1.10;0.50;;;;;;;;;;5087668;28;20046;-62
2023/01/20 05:11:16;;;;;;;2.25;0.47;;;;;;;;;;5091761;28;20052;-62
2023/01/20 05:13:46;;;;;;;0.20;0.20;;;;;;;;;;5083210;28;20568;-63
2023/01/20 05:16:14;;;;;;;1.85;0.80;;;;;;;;;;5074090;28;20072;-62
2023/01/20 05:18:42;;;;;;;1.83;1.42;;;;;;;;;;5083752;28;20036;-62
2023/01/20 05:21:11;;;;;;;1.48;0.65;;;;;;;;;;5091899;28;20067;-62
2023/01/20 05:23:39;;;;;;;0.63;0.63;;;;;;;;;;5079380;28;20044;-62
2023/01/20 05:26:07;;;;;;;1.73;0.77;;;;;;;;;;5089083;28;20503;-62
2023/01/20 05:28:35;;;;;;;0.43;0.43;;;;;;;;;;5083788;28;20048;-63
2023/01/20 05:31:05;;;;;;;4.10;0.60;;;;;;;;;;5082549;28;20044;-63
2023/01/20 05:33:34;;;;;;;1.38;1.27;;;;;;;;;;5085581;28;20044;-62
2023/01/20 05:36:05;;;;;;;0.30;0.30;;;;;;;;;;5087365;28;20043;-62
2023/01/20 05:38:33;;;;;;;0.57;0.50;;;;;;;;;;5079708;28;20044;-62
2023/01/20 05:41:01;;;;;;;5.55;0.98;;;;;;;;;;5088330;28;20516;-62
2023/01/20 05:43:30;;;;;;;0.75;0.75;;;;;;;;;;5083216;28;20474;-62
2023/01/20 05:45:58;;;;;;;5.32;0.57;;;;;;;;;;5088705;28;20044;-62
2023/01/20 05:48:27;;;;;;;1.38;0.73;;;;;;;;;;5087148;28;20044;-63
2023/01/20 05:50:56;;;;;;;0.47;0.47;;;;;;;;;;5075315;28;20044;-62
2023/01/20 05:53:24;;;;;;;2.35;0.88;;;;;;;;;;5078587;28;20050;-62
2023/01/20 05:55:59;;;;;;;1.05;0.95;;;;;;;;;;5090103;28;20051;-62
2023/01/20 05:58:27;;;;;;;;;;;;;;;;;;5082047;28;20037;-62
2023/01/20 06:00:55;;;;;;;0.30;0.30;;;;;;;;;;5079070;28;20505;-62
2023/01/20 06:03:23;;;;;;;0.47;0.47;;;;;;;;;;5080784;28;20101;-63
2023/01/20 06:05:53;;;;;;;0.15;0.15;;;;;;;;;;5081940;28;20104;-62
2023/01/20 06:08:21;;;;;;;0.20;0.20;;;;;;;;;;5084105;28;20579;-63
2023/01/20 06:10:50;;;;;;;2.00;0.70;;;;;;;;;;5085629;28;21529;-63
2023/01/20 06:13:18;;;;;;;2.15;1.38;;;;;;;;;;5086467;28;20040;-62
2023/01/20 06:15:51;;;;;;;0.65;0.65;;;;;;;;;;5079466;28;20052;-62
2023/01/20 06:18:19;;;;;;;0.70;0.50;;;;;;;;;;5082364;28;20094;-63
2023/01/20 06:20:47;;;;;;;1.50;0.95;;;;;;;;;;5084575;28;20496;-62
2023/01/20 06:23:17;;;;;;;0.75;0.47;;;;;;;;;;5075130;28;20170;-63
2023/01/20 06:25:46;;;;;;;0.77;0.70;;;;;;;;;;5075971;28;20051;-62
2023/01/20 06:28:14;;;;;;;0.57;0.57;;;;;;;;;;5078659;28;20044;-62
2023/01/20 06:30:42;;;;;;;4.60;0.93;;;;;;;;;;5083145;28;20503;-62
2023/01/20 06:33:11;;;;;;;0.70;0.52;;;;;;;;;;5091632;28;20051;-63
2023/01/20 06:35:39;;;;;;;0.90;0.90;;;;;;;;;;5095348;28;20049;-62
2023/01/20 06:38:07;;;;;;;1.58;1.30;;;;;;;;;;5078663;28;20481;-62
2023/01/20 06:40:37;;;;;;;0.82;0.82;;;;;;;;;;5088221;28;20055;-61
2023/01/20 06:43:05;;;;;;;0.82;0.82;;;;;;;;;;5085976;28;20056;-63
2023/01/20 06:45:33;;;;;;;1.27;0.55;;;;;;;;;;5094115;28;20082;-62
2023/01/20 06:48:01;;;;;;;1.30;1.20;;;;;;;;;;5085136;28;20041;-60
2023/01/20 06:50:30;;;;;;;0.35;0.35;;;;;;;;;;5091173;28;20381;-60
2023/01/20 06:52:58;;;;;;;0.50;0.50;;;;;;;;;;5092044;28;20047;-61
2023/01/20 06:55:26;;;;;;;0.93;0.77;;;;;;;;;;5079815;28;20074;-60
2023/01/20 06:57:56;;;;;;;0.82;0.82;;;;;;;;;;5083033;28;20045;-60
2023/01/20 07:00:24;;;;;;;1.70;0.32;;;;;;;;;;5088266;28;20055;-58
2023/01/20 07:02:53;;;;;;;0.73;0.55;;;;;;;;;;5091880;28;20063;-59
2023/01/20 07:05:21;;;;;;;0.50;0.50;;;;;;;;;;5092265;28;20043;-59
2023/01/20 07:07:49;;;;;;;1.52;0.98;;;;;;;;;;5093499;28;20055;-58
2023/01/20 07:10:18;;;;;;;0.80;0.45;;;;;;;;;;5093760;28;20083;-59
2023/01/20 07:12:46;;;;;;;0.28;0.28;;;;;;;;;;5086875;28;20040;-59
2023/01/20 07:15:16;;;;;;;0.88;0.80;;;;;;;;;;5089699;28;20135;-58
2023/01/20 07:17:44;;;;;;;0.50;0.50;;;;;;;;;;5089263;28;20048;-59
2023/01/20 07:20:13;;;;;;;0.55;0.55;;;;;;;;;;5094305;28;20056;-59
2023/01/20 07:22:41;;;;;;;1.05;0.52;;;;;;;;;;5087796;28;20059;-60
2023/01/20 07:25:10;;;;;;;0.73;0.55;;;;;;;;;;5094225;28;20058;-59
2023/01/20 07:27:38;;;;;;;1.13;0.98;;;;;;;;;;5092531;28;20055;-59
2023/01/20 07:30:07;;;;;;;0.40;0.40;;;;;;;;;;5088650;28;20040;-59
2023/01/20 07:32:37;;;;;;;1.50;1.40;;;;;;;;;;5091932;28;20078;-59
2023/01/20 07:35:05;;;;;;;0.38;0.38;;;;;;;;;;5090913;28;20044;-59
2023/01/20 07:37:34;;;;;;;0.52;0.52;;;;;;;;;;5092872;28;20048;-59
2023/01/20 07:40:02;;;;;;;3.08;0.75;;;;;;;;;;5092905;28;20411;-58
2023/01/20 07:42:31;;;;;;;1.55;0.90;;;;;;;;;;5090035;28;20048;-60
2023/01/20 07:44:59;;;;;;;0.75;0.50;;;;;;;;;;5083343;28;20044;-59
2023/01/20 07:47:27;;;;;;;1.55;1.45;;;;;;;;;;5081551;28;20063;-59
2023/01/20 07:49:57;;;;;;;1.48;1.30;;;;;;;;;;5096393;28;20055;-60
2023/01/20 07:52:25;;;;;;;1.55;0.85;;;;;;;;;;5088705;28;20036;-58
2023/01/20 07:54:53;;;;;;;0.57;0.50;;;;;;;;;;5092202;28;20420;-58
2023/01/20 07:57:22;;;;;;;1.50;0.73;;;;;;;;;;5086162;28;20138;-59
2023/01/20 07:59:50;;;;;;;0.52;0.52;;;;;;;;;;5089498;28;20060;-60
2023/01/20 08:02:18;;;;;;;0.47;0.47;;;;;;;;;;5084362;28;20048;-58
2023/01/20 08:04:47;;;;;;;0.43;0.38;;;;;;;;;;5088317;28;20046;-59
2023/01/20 08:07:17;;;;;;;7.32;1.13;;;;;;;;;;5102885;28;20040;-59
2023/01/20 08:09:45;;;;;;;0.75;0.50;;;;;;;;;;5085771;28;20048;-59
2023/01/20 08:12:13;;;;;;;1.35;0.65;;;;;;;;;;5091672;28;20105;-59
2023/01/20 08:14:42;;;;;;;1.23;0.60;;;;;;;;;;5088983;28;20047;-59
2023/01/20 08:17:10;;;;;;;0.73;0.73;;;;;;;;;;5086991;28;20048;-59
2023/01/20 08:19:38;;;;;;;2.78;2.13;;;;;;;;;;5090764;28;20059;-60
2023/01/20 08:22:07;;;;;;;6.70;4.63;;;;;;;;;;5091073;28;20055;-59
2023/01/20 08:24:37;;;;;;;5.22;3.50;;;;;;;;;;5087708;28;20040;-59
2023/01/20 08:27:05;;;;;;;1.55;1.40;;;;;;;;;;5080212;28;20485;-59
2023/01/20 08:29:34;;;;;;;4.13;1.52;;;;;;;;;;5077865;28;20056;-59
2023/01/20 08:32:02;;;;;;;9.50;2.13;;;;;;;;;;5089549;28;20448;-58
2023/01/20 08:34:30;;;;;;;1.52;1.35;;;;;;;;;;5087035;28;20122;-58
2023/01/20 08:36:59;;;;;;;2.83;1.08;;;;;;;;;;5089619;28;20039;-59
2023/01/20 08:39:27;;;;;;;2.00;1.67;;;;;;;;;;5091107;28;20051;-60
2023/01/20 08:41:57;;;;;;;5.10;1.60;;;;;;;;;;5091720;28;20134;-59
2023/01/20 08:44:26;;;;;;;3.67;2.72;;;;;;;;;;5083049;28;20067;-59
2023/01/20 08:46:58;;;;;;;6.00;3.92;;;;;;;;;;5083614;28;20044;-59
2023/01/20 08:49:26;;;;;;;7.22;2.92;;;;;;;;;;5072376;28;20071;-61
2023/01/20 08:51:55;;;;;;;4.85;2.40;;;;;;;;;;5088094;28;20048;-58
2023/01/20 08:54:24;;;;;;;1.02;1.02;;;;;;;;;;5080861;28;20106;-61
2023/01/20 08:56:53;;;;;;;8.25;2.42;;;;;;;;;;5078428;28;20044;-60
2023/01/20 08:59:23;;;;;;;1.20;1.20;;;;;;;;;;5080840;28;20047;-60
2023/01/20 09:01:52;;;;;;;1.38;1.27;;;;;;;;;;5077941;28;20082;-59
2023/01/20 09:04:21;;;;;;;1.40;1.23;;;;;;;;;;5074581;28;20444;-59
2023/01/20 09:06:51;;;;;;;4.85;1.33;;;;;;;;;;5088281;28;20040;-59
2023/01/20 09:09:21;;;;;;;2.22;1.42;;;;;;;;;;5086776;28;20050;-59
2023/01/20 09:11:53;;;;;;;1.85;1.52;;;;;;;;;;5087647;28;20545;-59
2023/01/20 09:14:25;;;;;;;0.65;0.43;;;;;;;;;;5087987;28;20048;-59
2023/01/20 09:16:53;;;;;;;0.93;0.93;;;;;;;;;;5090558;28;20072;-59
2023/01/20 09:19:22;;;;;;;0.45;0.45;;;;;;;;;;5086788;28;20044;-59
2023/01/20 09:21:50;;;;;;;1.33;0.60;;;;;;;;;;5088177;28;20114;-59
2023/01/20 09:24:19;;;;;;;3.08;0.55;;;;;;;;;;5088693;28;20105;-59
2023/01/20 09:26:48;;;;;;;1.52;1.42;;;;;;;;;;5086171;28;20060;-59
2023/01/20 09:29:17;;;;;;;2.65;1.40;;;;;;;;;;5085492;28;20492;-59
2023/01/20 09:31:51;;;;;;;0.80;0.80;;;;;;;;;;5074650;28;20048;-59
2023/01/20 09:34:24;;;;;;;0.52;0.52;;;;;;;;;;5097632;28;20127;-59
2023/01/20 09:36:53;;;;;;;3.67;0.80;;;;;;;;;;5091495;28;20040;-60
2023/01/20 09:45:21;;;;;;;0.95;0.80;;;;;;;;;;5090377;28;20039;-59
2023/01/20 09:47:51;;;;;;;0.70;0.40;;;;;;;;;;5081655;28;20075;-60
2023/01/20 09:53:15;;;;;;;1.23;1.20;;;;;;;;;;5089566;28;20044;-59
2023/01/20 09:55:47;;;;;;;0.85;0.85;;;;;;;;;;5091502;28;20130;-59
2023/01/20 09:58:26;;;;;;;4.25;0.75;;;;;;;;;;5089625;28;20048;-59
2023/01/20 10:01:00;;;;;;;1.42;1.13;;;;;;;;;;5085626;28;20485;-59
2023/01/20 10:03:35;;;;;;;2.25;1.42;;;;;;;;;;5088508;28;20513;-60
2023/01/20 10:06:08;;;;;;;1.42;1.30;;;;;;;;;;5085680;28;20075;-59
2023/01/20 10:08:41;;;;;;;1.52;0.90;;;;;;;;;;5085428;28;20063;-59
2023/01/20 10:11:27;;;;;;;1.48;1.10;;;;;;;;;;5086621;28;20039;-59
2023/01/20 10:14:00;;;;;;;0.82;0.50;;;;;;;;;;5088351;28;20048;-59
2023/01/20 10:16:33;;;;;;;2.17;1.40;;;;;;;;;;5081546;28;20570;-59
2023/01/20 10:19:05;;;;;;;5.57;1.20;;;;;;;;;;5085876;28;20402;-59
2023/01/20 10:21:37;;;;;;;0.70;0.70;;;;;;;;;;5087081;28;20555;-59
2023/01/20 10:24:08;;;;;;;1.10;0.77;;;;;;;;;;5085875;28;20056;-60
2023/01/20 10:26:42;;;;;;;3.42;1.42;;;;;;;;;;5082750;28;20589;-60
2023/01/20 10:29:15;;;;;;;1.13;1.02;;;;;;;;;;5086582;28;20052;-59
2023/01/20 10:31:45;;;;;;;2.80;0.70;;;;;;;;;;5087167;28;20393;-60
2023/01/20 10:34:17;;;;;;;1.50;0.63;;;;;;;;;;5082816;28;20060;-61
2023/01/20 10:36:49;;;;;;;1.38;1.25;;;;;;;;;;5074355;28;20074;-60
2023/01/20 10:39:23;;;;;;;1.17;0.95;;;;;;;;;;5084072;28;20048;-59
2023/01/20 10:41:55;;;;;;;1.08;1.00;;;;;;;;;;5083667;28;20056;-60
2023/01/20 10:44:24;;;;;;;1.80;1.23;;;;;;;;;;5087502;28;20143;-59
2023/01/20 10:46:56;;;;;;;0.63;0.30;;;;;;;;;;5086176;28;20125;-59
2023/01/20 10:49:35;;;;;;;0.50;0.50;;;;;;;;;;5080369;28;20139;-59
2023/01/20 10:52:12;;;;;;;0.40;0.32;;;;;;;;;;5077954;28;20472;-59
2023/01/20 10:54:46;;;;;;;1.20;0.30;;;;;;;;;;5085971;28;20044;-58
2023/01/20 10:57:15;;;;;;;0.70;0.70;;;;;;;;;;5084510;28;20095;-59
2023/01/20 10:59:45;;;;;;;0.70;0.70;;;;;;;;;;5085765;28;20048;-59
2023/01/20 11:02:16;;;;;;;0.40;0.40;;;;;;;;;;5083890;28;20134;-60
2023/01/20 11:04:46;;;;;;;0.20;0.20;;;;;;;;;;5087290;28;20393;-58
2023/01/20 11:07:16;;;;;;;0.35;0.35;;;;;;;;;;5079137;28;20047;-59
2023/01/20 11:09:45;;;;;;;2.20;1.52;;;;;;;;;;5079773;28;20776;-59
2023/01/20 11:12:15;;;;;;;0.52;0.52;;;;;;;;;;5075245;28;20514;-59
2023/01/20 11:14:44;;;;;;;0.85;0.52;;;;;;;;;;5088790;28;20048;-60
2023/01/20 11:17:14;;;;;;;1.40;1.30;;;;;;;;;;5094959;28;20080;-59
2023/01/20 11:19:51;;;;;;;0.75;0.68;;;;;;;;;;5089898;28;20138;-59
2023/01/20 11:22:24;;;;;;;0.93;0.90;;;;;;;;;;5078858;28;20496;-59
2023/01/20 11:24:55;;;;;;;0.20;0.20;;;;;;;;;;5085173;28;20074;-59
2023/01/20 11:27:25;;;;;;;0.88;0.73;;;;;;;;;;5078748;28;20048;-60
2023/01/20 11:29:57;;;;;;;1.48;1.10;;;;;;;;;;5093235;28;20154;-59
2023/01/20 11:32:27;;;;;;;1.38;1.02;;;;;;;;;;5090313;28;20480;-59
2023/01/20 11:34:57;;;;;;;1.02;0.82;;;;;;;;;;5090703;28;20044;-59
2023/01/20 11:37:26;;;;;;;0.82;0.82;;;;;;;;;;5075372;28;20044;-59
2023/01/20 11:39:59;;;;;;;0.20;0.20;;;;;;;;;;5087834;28;20590;-59
2023/01/20 11:42:29;;;;;;;0.60;0.40;;;;;;;;;;5093458;28;20487;-59
2023/01/20 11:44:58;;;;;;;1.75;1.52;;;;;;;;;;5087392;28;20135;-59
2023/01/20 11:47:46;;;;;;;0.22;0.22;;;;;;;;;;5083036;28;20515;-60
2023/01/20 11:50:23;;;;;;;0.75;0.70;;;;;;;;;;5078634;28;20484;-59
2023/01/20 11:52:52;;;;;;;0.60;0.60;;;;;;;;;;5085840;28;20040;-60
2023/01/20 11:55:22;;;;;;;1.38;0.52;;;;;;;;;;5087270;28;20040;-60
2023/01/20 11:57:53;;;;;;;1.98;0.80;;;;;;;;;;5085244;28;20487;-59
2023/01/20 12:00:32;;;;;;;2.38;1.48;;;;;;;;;;5087456;28;20048;-59
2023/01/20 12:03:12;;;;;;;0.45;0.45;;;;;;;;;;5081614;28;20096;-60
2023/01/20 12:05:44;;;;;;;1.27;0.47;;;;;;;;;;5089358;28;20056;-59
2023/01/20 12:08:16;;;;;;;0.63;0.63;;;;;;;;;;5080029;28;20443;-59
2023/01/20 12:10:45;;;;;;;0.50;0.50;;;;;;;;;;5079610;28;20051;-59
2023/01/20 12:13:17;;;;;;;3.25;2.50;;;;;;;;;;5090499;28;20052;-58
2023/01/20 12:15:51;;;;;;;1.95;0.50;;;;;;;;;;5089106;28;20052;-60
2023/01/20 12:18:22;;;;;;;3.70;0.87;;;;;;;;;;5087552;28;20140;-59
2023/01/20 12:20:56;;;;;;;1.52;0.90;;;;;;;;;;5074107;28;20809;-59
2023/01/20 12:23:38;;;;;;;1.55;1.45;;;;;;;;;;5078208;28;20489;-59
2023/01/20 12:26:07;;;;;;;0.57;0.57;;;;;;;;;;5075307;28;20629;-58
2023/01/20 12:28:39;;;;;;;1.77;1.13;;;;;;;;;;5088946;28;20408;-59
2023/01/20 12:31:08;;;;;;;5.93;1.58;;;;;;;;;;5078853;28;20053;-59
2023/01/20 12:33:38;;;;;;;0.40;0.40;;;;;;;;;;5087739;28;20127;-59
2023/01/20 12:36:34;;;;;;;0.75;0.75;;;;;;;;;;5085674;28;20048;-59
2023/01/20 12:39:25;;;;;;;0.65;0.65;;;;;;;;;;5081059;28;20047;-59
2023/01/20 12:42:12;;;;;;;4.78;1.23;;;;;;;;;;5088315;28;20518;-59
2023/01/20 12:44:45;;;;;;;0.28;0.28;;;;;;;;;;5089511;28;20175;-59
2023/01/20 12:47:17;;;;;;;3.90;0.73;;;;;;;;;;5080226;28;20051;-59
2023/01/20 12:49:52;;;;;;;2.08;1.33;;;;;;;;;;5087168;28;20048;-59
2023/01/20 12:52:28;;;;;;;4.50;1.45;;;;;;;;;;5086340;28;20051;-59
2023/01/20 12:55:03;;;;;;;12.90;1.08;;;;;;;;;;5086610;28;20048;-59
2023/01/20 12:57:31;;;;;;;;;;;;;;;;;;5080161;28;20179;-62
2023/01/20 13:00:08;;;;;;;6.03;2.47;;;;;;;;;;5074556;28;19924;-60
2023/01/20 13:02:49;;;;;;;15.40;4.82;;;;;;;;;;5078101;28;20542;-60
2023/01/20 13:05:39;;;;;;;6.15;2.78;;;;;;;;;;5082112;28;20055;-60
2023/01/20 13:08:15;;;;;;;6.35;4.60;;;;;;;;;;5083057;28;20036;-59
2023/01/20 13:10:48;;;;;;;7.72;4.18;;;;;;;;;;5084731;28;20058;-60
2023/01/20 13:13:21;;;;;;;9.40;4.07;;;;;;;;;;5085896;28;20047;-60
2023/01/20 13:15:55;;;;;;;8.27;2.63;;;;;;;;;;5078996;28;20499;-60
2023/01/20 13:18:26;;;;;;;5.75;4.10;;;;;;;;;;5088091;28;20076;-60
2023/01/20 13:20:55;;;;;;;2.60;1.35;;;;;;;;;;5085890;28;20126;-59
2023/01/20 13:23:27;;;;;;;2.78;2.10;;;;;;;;;;5092544;28;20082;-59
2023/01/20 13:25:56;;;;;;;8.32;3.08;;;;;;;;;;5083979;28;20052;-60
2023/01/20 13:28:26;;;;;;;6.65;3.90;;;;;;;;;;5089679;28;20046;-60
2023/01/20 13:30:56;;;;;;;7.60;2.92;;;;;;;;;;5083696;28;20048;-60
2023/01/20 13:33:32;;;;;;;6.40;3.20;;;;;;;;;;5084463;28;20142;-60
2023/01/20 13:36:01;;;;;;;4.95;3.80;;;;;;;;;;5087602;28;20129;-60
2023/01/20 13:38:34;;;;;;;2.95;2.15;;;;;;;;;;5081965;28;20052;-60
2023/01/20 13:41:04;;;;;;;5.30;4.05;;;;;;;;;;5084653;28;20040;-60
2023/01/20 13:43:35;;;;;;;2.47;2.22;;;;;;;;;;5082079;28;20135;-60
2023/01/20 13:46:22;;;;;;;6.75;3.45;;;;;;;;;;5082776;28;20085;-60
2023/01/20 13:49:05;;;;;;;5.07;2.40;;;;;;;;;;5084699;28;20548;-61
2023/01/20 13:51:44;;;;;;;5.88;3.08;;;;;;;;;;5078863;28;20072;-60
2023/01/20 13:54:29;;;;;;;13.52;4.03;;;;;;;;;;5085351;28;20083;-60
2023/01/20 13:56:58;;;;;;;;;;;;;;;;;;5072845;28;20051;-60
2023/01/20 13:59:27;;;;;;;5.13;2.28;;;;;;;;;;5082372;28;19923;-60
2023/01/20 14:01:56;;;;;;;2.88;2.25;;;;;;;;;;5085057;28;20063;-59
2023/01/20 14:04:25;;;;;;;5.78;2.78;;;;;;;;;;5090600;28;20379;-60
2023/01/20 14:06:54;;;;;;;6.43;1.85;;;;;;;;;;5085903;28;20051;-60
2023/01/20 14:09:23;;;;;;;4.32;1.65;;;;;;;;;;5093537;28;20147;-61
2023/01/20 14:11:52;;;;;;;4.25;2.70;;;;;;;;;;5081718;28;20139;-60
2023/01/20 14:14:22;;;;;;;9.48;3.60;;;;;;;;;;5087756;28;20067;-60
2023/01/20 14:16:56;;;;;;;7.43;3.55;;;;;;;;;;5082264;28;20071;-60
2023/01/20 14:19:28;;;;;;;8.30;3.72;;;;;;;;;;5081355;28;20044;-60
2023/01/20 14:21:58;;;;;;;6.72;3.63;;;;;;;;;;5085785;28;20114;-60
2023/01/20 14:24:28;;;;;;;7.18;2.45;;;;;;;;;;5081277;28;20052;-60
2023/01/20 14:27:06;;;;;;;5.32;2.08;;;;;;;;;;5084689;28;20158;-60
2023/01/20 14:29:35;;;;;;;3.08;2.13;;;;;;;;;;5081894;28;20153;-60
2023/01/20 14:32:14;;;;;;;10.45;3.40;;;;;;;;;;5081871;28;20057;-60
2023/01/20 14:34:43;;;;;;;7.30;3.55;;;;;;;;;;5082434;28;20086;-60
2023/01/20 14:37:22;;;;;;;7.97;3.63;;;;;;;;;;5088782;28;20044;-60
2023/01/20 14:39:53;;;;;;;1.92;1.83;;;;;;;;;;5066653;28;20056;-61
2023/01/20 14:42:23;;;;;;;8.57;2.50;;;;;;;;;;5088143;28;20056;-60
2023/01/20 14:44:52;;;;;;;3.05;2.17;;;;;;;;;;5082718;28;20098;-60
2023/01/20 14:47:23;;;;;;;5.57;2.83;;;;;;;;;;5088502;28;20508;-60
2023/01/20 14:49:53;;;;;;;2.90;1.92;;;;;;;;;;5081733;28;20102;-60
2023/01/20 14:52:23;;;;;;;1.65;0.85;;;;;;;;;;5090327;28;20047;-60
2023/01/20 14:54:54;;;;;;;3.45;2.88;;;;;;;;;;5088741;28;20416;-60
2023/01/20 14:57:27;;;;;;;5.90;3.08;;;;;;;;;;5087718;28;20056;-61
2023/01/20 15:00:16;;;;;;;6.25;3.10;;;;;;;;;;5091753;28;20068;-60
2023/01/20 15:02:48;;;;;;;5.88;1.98;;;;;;;;;;5085825;28;20135;-60
2023/01/20 15:05:33;;;;;;;5.72;3.45;;;;;;;;;;5087367;28;20051;-61
2023/01/20 15:08:17;;;;;;;2.65;2.45;;;;;;;;;;5089270;28;20060;-60
2023/01/20 15:10:45;;;;;;;5.03;2.58;;;;;;;;;;5080295;28;20068;-60
2023/01/20 15:13:24;;;;;;;1.80;1.13;;;;;;;;;;5089532;28;20412;-60